Hlavní strana
METAR-TAF:

METAR-TAF

Letiště :

Pickens, Jižní Karolína, Spojené státy americké

zeměpisná šířka: 34-48-36N, zeměpisná délka: 082-42-10W, výška: 309 m

Aktuální stav počasí

Zpráva byla vytvořena před 21 minutami, v 07:35 UTC
Západní vítr 3 kt
Teplota 16°C
Vlhkost vzduchu 100%
Tlak 1008 hPa
Viditelnost: 16.1 km
Polojasno ve výšce 6000 ft
Polojasno ve výšce 8000 ft
Zataženo ve výšce 10000 ft
mrholení

METAR: KLQK 260735Z AUTO 27003KT 10SM DZ SCT060 SCT080 OVC100 16/16 A2977 RMK AO2 T01580158

Čas: 03:56 (07:56 UTC)


TAF: chybějící

Stav a předpovědi počasí z více než 4 000 letišť (zprávy METAR a TAF).

Červené a žluté tečky na mapě představují dostupné meteorologické stanice.

Když kurzor umístíte na tečku, zobrazí se název stanice.

Pak kliknutím zobrazíte stav a předpověď počasí.

Chcete-li změnit mapu, kliknutím na zelené tlačítko se znaménkem +mapu přiblížíte, kliknutím na zelené tlačítko se znaménkem – mapu oddálíte a kliknutím na zelené šipky přejdete na sousední mapy.


METAR-TAF: